Timeline UpdatesTrip UpdatesNews PostsPvt PostsTravel TipsAdmin PostsConv PostsFollowed PostsChat RequestsBlog PostsPNR Posts

Disclaimer
Search
 
 
Tue Sep 30, 2014 21:21:47 ISTHomeTrainsΣChainsAtlasPNRForumGalleryNewsFAQTripsMembersLoginFeedback
No Recent News for this Train
Other Trains in the News **new
Latest...
⇐ Return Journey: Train# 53043

53044/Rajgir - Howrah Fast Passenger (UnReserved)

Time-Table HAS CHANGED.
Sep 03 (12:25AM)
Change Departure Station:
Change Arrival Station:
Post a Train Travel TipPost a Train Travel Tip **new
Post a Comment/Question/Picture/VideoPost a Comment/Question/Picture/Video
Pantry/Catering
✕ NO Pantry Car
✕ NO Catering
RSA - Rake Sharing
Rake/Coach Composition
Loco
HWH WDM 3A/3D
News    PNR    Forum    Time-Table    Availability    Fare Chart    Map    Arr/Dep History    Trips    Gallery    ΣChains    X/O    Timeline    
Travel Time: 23h 30m    72 halts    Distance: 657 km    Avg Speed: 27 km/hr
Type: Passenger
Zone: ER/Eastern
Departs @ 12:40 (Avg 1h 36m late)
Platform# ???
SMTWTFS
Rajgir/RGD 
Arrives @ 12:10 +1 night (Avg 3h 21m late)
Platform# 1
SMTWTFS
Kolkata Howrah Junction/HWH 

72 halts. 158 intermediate Stations between Rajgir and Kolkata Howrah Junction

Show ALL intermediate Stations  Show Old Time-Table

#CodeStation NameX/OArrivesAvgDepartsAvgHaltPFDay#KmSpeedElevZoneAddress
1RGDRajgir (3)»  -12:40+1:36--10.03871mECRRajgir, Bihar
2NLDNalanda (2)  12:58+2:0012:59+2:181m--111.34063mECRNational Highway 82, Bihar
3BEHSBihar Sharif (2)  13:18+2:2413:23+2:275m--123.83656mECR06112-222306, Bihar
4WENAWena (2)  13:46+2:2613:47+2:261m--137.8947mECRWena, Bihar
5HRTHarnaut (3)X  14:21+2:2714:28+2:387m--142.95349mECRHarnaut, Bihar
6BKPBakhtiyarpur Junction (5)XO  14:40+2:0015:10+2:3530m--153.66851mECRPatna, Bihar
7ATLAthmal Gola (2)  15:18+3:1615:19+3:161m--162.65052mECRPatna, Bihar
8BARHBarh (3)X  15:30+2:3415:32+2:422m--171.77749mECRBarh, Bihar
9PHKPunarakh (2)  15:40+3:3315:41+3:341m--181.92951mECRPunarakh, Bihar
10MORMor (2)XO  15:58+3:3216:27+3:1429m--190.14946mECRMor, Bihar
11MKAMokama Junction (4)  16:36+2:5316:40+2:514m--197.45648mECRPatna, Bihar
12HTZHathidah Junction (2)X  16:49+2:4416:51+2:442m11105.84650mECRMusahari, Bihar
13RDUMRampur Dumra (3)OO  16:56+3:0216:57+3:071m--1109.63746mECRNational Highway 80, Bihar
14BRYABarhiya (3)  17:06+2:5217:08+2:522m--1115.22247mECRBarahiya, Bihar
15MKBMankatha  17:34+3:1817:40+3:196m--1124.63047mECRNational Highway 80, Bihar
16LKRLuckeesarai Junction (2)X  17:51+3:0417:53+3:042m--1130.21252mECRLakhisarai, Bihar
17KIULKiul Junction (5)X  18:00+1:5418:25+1:4825m--1131.63653mECRDist. Lakhisarai, Bihar
18DNREDhanauri  18:35+3:0718:37+3:092m--1137.64948mERNational Highway 80, Bihar
19URENUrenX  18:43+3:2418:45+3:232m--1142.55845mERUren, Bihar
20KJHKajra (2)  18:50+3:1018:51+3:121m--1147.36250mERLakhisarai District, Bihar
21AHAAbhaipur (3)  18:58+3:1518:59+3:161m--1154.64852mERAbhaipur, Bihar
22MSDNMasudan (2)  19:04+3:1719:05+3:171m--1158.66045mERMasudan, Bihar
23DRHDharhara (2)  19:11+3:1819:12+3:181m--1164.61855mERDharhara, Bihar
24DRTPDasharathpur (2)  19:30+3:0719:31+3:081m--1170.03248mERDharhara, Bihar
25JMPJamalpur Junction (4)  19:43+1:5519:58+1:5415m11176.44259mERJamalpur 06344-243101, Bihar
26RPURRatanpur (2)  20:07+3:1020:08+3:111m--1182.75846mERRatanpur Railway Station, Bihar
27BUPBariarpur (3)  20:13+3:2120:14+3:241m--1187.51142mERMunger, Bihar
28KPRDKalyanpur Road (3)  20:21+3:1520:22+3:151m--1188.81040mERMunger, Bihar
29GNNAGangani (2)  20:29+3:1520:30+3:151m--1190.013338mERGangania, Bihar
30SGGSultanGanj (3)  20:37+2:3920:40+2:403m--1205.56642mERSultanganj, Bihar
31MVVMaheshi (2) new halt!!  20:46-20:47-1m--1212.14137mERTilakpur, Bihar
32AKNAkbarnagar (3)  20:52+3:1720:53+3:181m--1215.54439mERTilakpur, Bihar
33NATNathnagar (2)  21:01+3:1821:02+3:211m--1225.74048mERBhagalpur, Bihar
34BGPBhagalpur Junction (6)X  21:09+2:5921:19+3:0310m--1230.45049mERBhagalpur, Bihar
35SBOSabaur (3)  21:28+3:3621:29+3:401m--1238.04442mERSabour, Bihar
36LMMLailakh Mamalkha (2)  21:38+3:4121:39+3:441m--1244.65836mERLailakh Mamlkha, Bihar
37GGAGhoga (2)  21:45+3:4621:47+3:542m--1250.46942mERGhoga, Bihar
38EKCEkchari (1)  21:52+3:5621:53+3:571m11256.15237mERNational Highway 80, Bihar
39CLGKahalgaon (2)  21:58+4:0022:00+4:012m11260.54944mERBhagalpur, Bihar
40SVRPShivanarayanpur (2)X  22:14+4:0722:38+3:5224m--1272.04847mERShivanarayanpur, Bihar
41PPTPirpainti (2)  22:49+3:5422:51+4:052m--1280.85653mERBhagalpur, Bihar
42MZCMirza Cheuki (3)X  23:00+4:0823:06+4:076m31289.32638mERBihar, Bihar
43SBGSahibganj Junction (3)X  23:41+4:0323:59+4:0718m11304.45238mERSahibganj, Jharkhand
44SLJSakrigali Junction (3)X  00:08+4:1900:09+4:251m--2312.25345mERSakrigali, Jharkhand
45MJPMaharajpur (2)  00:16+4:2900:17+4:351m--2318.38534mERMoharajpur, Jharkhand
46TLJTaljhari  00:27+4:4300:28+4:531m--2332.55838mERTaljhari, Jharkhand
47KXEKalian Chak  00:33+4:5500:34+4:551m--2337.35845mERKalian Chak, Jharkhand
48TPHTinpahar Junction (3)  00:39+4:5700:42+4:593m22342.15945mERBamangawan, Jharkhand
49BKLEBakudi (3)  00:51+5:0200:52+5:021m--2350.92665mERBakudi, Jharkhand
50BHWBarharwa Junction (3)X  01:10+4:5301:20+4:5310m22358.84436mERBarharwa, Jharkhand
51GMANGumani (3)X  01:30+4:5701:31+5:001m--2366.26731mERGumani, Jharkhand
52KLPKotalpukur (3)XO  01:37+4:4101:39+4:402m--2372.92240mERKotalpukur, Jharkhand
53PKRPakur (2)X  02:10 02:11+4:1302:11 02:16+4:141 5m22384.96337mERDist:- Pakur, Jharkhand
54RJGRajgram (3)  02:26+4:4902:27+4:491m22395.47032mERDist - Birbhum, West Bengal
55MRRMurarai (3)X  02:37+5:0502:38+5:081m--2407.17036mERDist - Birbhum, West Bengal
56NHTNalhati Junction (4)X  02:52+5:1802:54+5:202m22423.42948mERDist - Birbhum, West Bengal
57RPHRampurhat (3)X  03:23+4:2703:43+4:2420m--2437.46741mERDIST - Birbhum, West Bengal
58SNTSainthia Junction (4)  04:08+3:5504:13+3:555m42465.44758mERDist - Birbhum, West Bengal
59AMPAhmadpur Junction (3)O  04:30+5:1104:35 04:32+5:185 2m--2478.72546mERDist - Birbhum, West Bengal
60PNEPrantik (3)  05:08+5:2205:09+5:221m--2493.95148mERDist - Birbhum, West Bengal
61BHPBolpur Shantiniketan (3)  05:14+5:4605:19+5:445m--2498.26059mERDist - Birbhum, West Bengal
62BDHBhedia (2)  05:27+5:2305:28+5:231m--2506.25541mERDist - Bardhaman, West Bengal
63GKHGuskara (2)X  05:40+5:0105:41+5:021m12517.16041mERDist - Bardhaman, West Bengal
64BPSBanpas (3)  05:51+5:0405:52+5:041m--2527.21146mERDist - Bardhaman, West Bengal
65KANKhana Junction (5)X  06:45+4:5306:46+4:531m--2536.85642mERDist - Bardhaman, West Bengal
66BWNBarddhaman Junction (8)XO  07:00+4:2707:20+4:2420m--2549.95034mERDist - Barddhaman, West Bengal
67MYMMemari (4)  07:50+4:4208:00+4:3610m--2575.02225mERMemari, West Bengal
68MUGMagra (3)  09:38+4:1209:43+4:205m--2610.4715mERMagra, West Bengal
69BDCBandel Junction (7)  10:44+4:2610:50+4:266m--2617.23214mERdist - HOOGHLY, West Bengal
70CNSChuchura (3)  10:57-10:58-1m--2620.93615mERDist - HOOGHLY - 712102, West Bengal
71CGRChandan Nagar (3)  11:03+3:1711:05+3:172m--2623.95316mERDist -HOOGHLY - 712136, West Bengal
72SHESeoraphuli Junction (6)  11:17+3:2911:19+3:292m--2634.63013mERBaidyabati, West Bengal
73SRPSerampore (4)X  11:24+3:2911:28+3:284m--2637.12811mERdist - hooghly, West Bengal
74HWHKolkata Howrah Junction (23)•  12:10+3:21-12656.7-10mERHowrah 711101, West Bengal
Scroll to Top
Scroll to Bottom